KMWM

Details ICAO KMWM (MWM)
Name WINDOM MUNI
Region United States
Timezone America/Chicago (UTC-5.0)
Plans Departing 0
Arriving 3
Stats Elevation 1,410 ft / 430 m (AMSL)
Location 43.913410° -95.109398°
Runways 1
Magnetic Variation 1.749° E
Sunrise 2018-05-20 10:50:59 UTC / 2018-05-20 05:50:59 Local
Sunset 2018-05-21 01:45:49 UTC / 2018-05-20 20:45:49 Local
Advertisement - Login to hide

Runways

ID Width Length Bearing (true) Bearing (mag) Surface Threshold Offset Overrun Length
17 75 ft / 23 m 3,604 ft / 1,098 m 180.35° 178.60° Asphalt 0 ft / 0 m 0 ft / 0 m
35 75 ft / 23 m 3,604 ft / 1,098 m 0.35° 358.60° Asphalt 0 ft / 0 m 0 ft / 0 m

Map

Weather


0- 5 10 15 20 25 30 35+ Temperature / ° C

Clouds and Precipitation
Forecast for 2018-05-21 06:00 UTC. Updated 18 minutes ago

Ground ~20,000 ft ~40,000 ft Winds

METAR

KMWM 210355Z AUTO 11005KT 10SM RA BKN021 15/05 A3012 RMK AO2

TAF

Not found

Frequencies

Recorded 118.52 MHz AWOS 3
Unicom 122.90 MHz CTAF
Warning: Do not use this data for real-world aviation or navigation. No guarantee of current accuracy is given.